createdAt,value
2018-06-25T00:00:10.216Z,74.10
2018-06-25T00:02:38.357Z,73.60
2018-06-25T00:05:06.485Z,73.70
2018-06-25T00:07:34.615Z,74.60
2018-06-25T00:10:02.756Z,73.40
2018-06-25T00:12:30.907Z,73.30
2018-06-25T00:14:59.454Z,73.30
2018-06-25T00:17:27.571Z,73.30
2018-06-25T00:19:55.791Z,73.20
2018-06-25T00:22:23.915Z,73.40
2018-06-25T00:24:52.084Z,73.30
2018-06-25T00:27:20.351Z,73.80
2018-06-25T00:29:48.455Z,73.30
2018-06-25T00:32:16.585Z,73.40
2018-06-25T00:34:44.724Z,73.20
2018-06-25T00:37:12.994Z,73.50
2018-06-25T00:39:41.113Z,73.10
2018-06-25T00:42:09.267Z,72.90
2018-06-25T00:44:37.416Z,72.80
2018-06-25T00:47:05.995Z,73.00
2018-06-25T00:49:34.230Z,73.00
2018-06-25T00:52:02.380Z,72.90
2018-06-25T00:54:30.538Z,72.90
2018-06-25T00:56:58.695Z,73.10
2018-06-25T00:59:38.275Z,73.60
2018-06-25T01:02:06.426Z,73.10
2018-06-25T01:04:34.567Z,73.10
2018-06-25T01:07:02.740Z,73.10
2018-06-25T01:09:30.910Z,73.00
2018-06-25T01:11:59.051Z,72.90
2018-06-25T01:16:55.128Z,72.70
2018-06-25T01:19:23.323Z,72.70
2018-06-25T01:21:51.476Z,72.80
2018-06-25T01:24:19.619Z,72.90
2018-06-25T01:26:47.776Z,72.80
2018-06-25T01:29:15.925Z,72.90
2018-06-25T01:31:44.119Z,72.90
2018-06-25T01:34:12.287Z,73.30
2018-06-25T01:36:40.435Z,72.90
2018-06-25T01:39:09.742Z,72.90
2018-06-25T01:41:37.866Z,72.90
2018-06-25T01:44:06.062Z,73.00
2018-06-25T01:46:34.192Z,73.10
2018-06-25T01:49:02.363Z,73.00
2018-06-25T01:51:30.514Z,73.00
2018-06-25T01:53:58.638Z,73.30
2018-06-25T01:56:26.832Z,73.20
2018-06-25T01:58:54.948Z,73.40
2018-06-25T02:01:23.095Z,73.40
2018-06-25T02:03:51.228Z,73.50
2018-06-25T02:06:19.369Z,73.60
2018-06-25T02:08:47.494Z,73.60
2018-06-25T02:11:15.660Z,73.80
2018-06-25T02:13:43.800Z,73.90
2018-06-25T02:16:11.941Z,74.20
2018-06-25T02:18:40.069Z,75.20
2018-06-25T02:21:08.231Z,74.70
2018-06-25T02:23:36.364Z,75.10
2018-06-25T02:26:05.170Z,75.20
2018-06-25T02:28:33.298Z,75.30
2018-06-25T02:31:01.433Z,75.90
2018-06-25T02:33:29.571Z,76.20
2018-06-25T02:35:57.750Z,76.20
2018-06-25T02:38:26.041Z,76.30
2018-06-25T02:40:54.189Z,76.40
2018-06-25T02:43:22.325Z,76.60
2018-06-25T02:45:50.481Z,76.60
2018-06-25T02:48:18.600Z,76.80
2018-06-25T02:50:46.762Z,77.10
2018-06-25T02:53:15.164Z,77.30
2018-06-25T02:55:43.484Z,77.40
2018-06-25T02:58:11.650Z,77.70
2018-06-25T03:00:39.783Z,78.10
2018-06-25T03:03:07.908Z,78.00
2018-06-25T03:05:36.036Z,78.10
2018-06-25T03:08:04.180Z,78.10
2018-06-25T03:10:32.324Z,78.40
2018-06-25T03:13:00.610Z,79.10
2018-06-25T03:15:28.739Z,78.90
2018-06-25T03:17:56.984Z,78.80
2018-06-25T03:20:25.138Z,79.10
2018-06-25T03:22:53.284Z,79.00
2018-06-25T03:25:21.438Z,79.00
2018-06-25T03:27:49.665Z,79.10
2018-06-25T03:30:17.808Z,79.70
2018-06-25T03:32:45.963Z,79.20
2018-06-25T03:35:14.124Z,79.40
2018-06-25T03:37:42.373Z,79.40
2018-06-25T03:40:10.504Z,80.40
2018-06-25T03:42:38.639Z,79.70
2018-06-25T03:45:06.785Z,79.60
2018-06-25T03:47:34.952Z,79.90
2018-06-25T03:50:03.100Z,79.90
2018-06-25T03:52:31.239Z,79.70
2018-06-25T03:54:59.369Z,80.40
2018-06-25T03:57:27.555Z,79.70
2018-06-25T03:59:55.687Z,79.70
2018-06-25T04:02:23.928Z,80.00
2018-06-25T04:04:52.127Z,79.80
2018-06-25T04:07:20.271Z,80.00
2018-06-25T04:09:48.419Z,80.00
2018-06-25T04:12:16.747Z,80.00
2018-06-25T04:14:44.785Z,80.10
2018-06-25T04:17:12.940Z,80.40
2018-06-25T04:19:41.110Z,80.30
2018-06-25T04:22:09.292Z,80.60
2018-06-25T04:24:37.429Z,80.50
2018-06-25T04:27:05.578Z,80.40
2018-06-25T04:29:33.721Z,80.70
2018-06-25T04:32:01.953Z,80.90
2018-06-25T04:34:30.110Z,80.70
2018-06-25T04:36:58.304Z,80.40
2018-06-25T04:39:26.808Z,80.50
2018-06-25T04:42:06.416Z,80.70
2018-06-25T04:44:34.665Z,80.50
2018-06-25T04:47:02.788Z,80.50
2018-06-25T04:49:30.993Z,80.30
2018-06-25T04:51:59.225Z,80.40
2018-06-25T04:54:27.409Z,80.20
2018-06-25T04:56:55.547Z,80.40
2018-06-25T04:59:23.793Z,80.70
2018-06-25T05:01:52.171Z,80.80
2018-06-25T05:04:20.348Z,80.20
2018-06-25T05:06:49.419Z,79.80
2018-06-25T05:09:17.667Z,80.30
2018-06-25T05:11:45.812Z,80.10
2018-06-25T05:14:13.969Z,79.90
2018-06-25T05:16:42.118Z,79.90
2018-06-25T05:19:10.270Z,79.80
2018-06-25T05:21:38.557Z,79.90
2018-06-25T05:24:06.725Z,80.00
2018-06-25T05:26:34.907Z,79.80
2018-06-25T05:29:03.065Z,79.80
2018-06-25T05:31:31.165Z,79.80
2018-06-25T05:33:59.331Z,79.90
2018-06-25T05:36:27.504Z,79.80
2018-06-25T05:38:55.681Z,79.70
2018-06-25T05:41:23.967Z,79.60
2018-06-25T05:43:52.116Z,79.70
2018-06-25T05:46:20.312Z,79.80
2018-06-25T05:48:48.435Z,79.60
2018-06-25T05:51:16.576Z,79.60
2018-06-25T05:53:44.767Z,79.40
2018-06-25T05:56:12.919Z,79.30
2018-06-25T05:58:41.074Z,79.50
2018-06-25T06:01:09.319Z,79.40
2018-06-25T06:03:37.502Z,79.40
2018-06-25T06:06:05.732Z,79.20
2018-06-25T06:08:33.864Z,79.20
2018-06-25T06:11:02.040Z,79.10
2018-06-25T06:13:30.172Z,79.10
2018-06-25T06:15:58.263Z,79.10
2018-06-25T06:18:26.356Z,78.80
2018-06-25T06:20:54.487Z,78.80
2018-06-25T06:23:22.670Z,78.90
2018-06-25T06:25:50.759Z,78.90
2018-06-25T06:28:18.848Z,78.60
2018-06-25T06:30:46.983Z,78.40
2018-06-25T06:33:15.083Z,78.70
2018-06-25T06:35:43.203Z,78.40
2018-06-25T06:38:11.418Z,78.10
2018-06-25T06:40:39.521Z,77.90
2018-06-25T06:43:07.599Z,77.50
2018-06-25T06:45:36.739Z,77.40
2018-06-25T06:48:05.108Z,77.60
2018-06-25T06:50:33.291Z,77.00
2018-06-25T06:53:01.375Z,77.50
2018-06-25T06:55:29.574Z,77.40
2018-06-25T06:57:57.929Z,77.30
2018-06-25T07:00:26.017Z,77.30
2018-06-25T07:02:54.120Z,77.20
2018-06-25T07:05:22.259Z,77.00
2018-06-25T07:07:50.364Z,76.90
2018-06-25T07:10:18.650Z,76.60
2018-06-25T07:12:46.866Z,76.70
2018-06-25T07:15:15.005Z,76.70
2018-06-25T07:17:43.223Z,76.00
2018-06-25T07:20:11.394Z,76.10
2018-06-25T07:22:39.579Z,75.80
2018-06-25T07:25:07.752Z,75.00
2018-06-25T07:27:36.048Z,75.00
2018-06-25T07:30:04.619Z,74.50
2018-06-25T07:32:32.821Z,72.90
2018-06-25T07:35:01.053Z,72.40
2018-06-25T07:37:29.299Z,73.10
2018-06-25T07:39:57.420Z,73.30
2018-06-25T07:42:25.551Z,73.30
2018-06-25T07:44:53.931Z,73.30
2018-06-25T07:47:22.151Z,73.40
2018-06-25T07:49:50.198Z,73.80
2018-06-25T07:52:18.322Z,73.50
2018-06-25T07:54:46.499Z,72.60
2018-06-25T07:57:14.632Z,72.50
2018-06-25T07:59:42.791Z,72.50
2018-06-25T08:02:10.936Z,72.30
2018-06-25T08:04:39.116Z,72.10
2018-06-25T08:07:07.284Z,72.20
2018-06-25T08:09:35.443Z,71.70
2018-06-25T08:12:03.583Z,71.20
2018-06-25T08:14:31.737Z,70.30
2018-06-25T08:16:59.871Z,71.00
2018-06-25T08:19:28.104Z,70.70
2018-06-25T08:21:56.229Z,70.00
2018-06-25T08:24:24.396Z,70.00
2018-06-25T08:26:52.540Z,69.60
2018-06-25T08:29:20.688Z,69.20
2018-06-25T08:31:48.848Z,68.60
2018-06-25T08:34:17.096Z,69.00
2018-06-25T08:36:45.161Z,68.50
2018-06-25T08:39:13.386Z,67.60
2018-06-25T08:41:41.822Z,67.20
2018-06-25T08:44:09.985Z,66.60
2018-06-25T08:46:38.217Z,66.70
2018-06-25T08:49:07.179Z,66.10
2018-06-25T08:51:35.383Z,66.40
2018-06-25T08:54:03.489Z,66.50
2018-06-25T08:56:31.629Z,66.60
2018-06-25T08:58:59.845Z,65.20
2018-06-25T09:01:27.944Z,65.60
2018-06-25T09:03:56.088Z,65.90
2018-06-25T09:06:24.233Z,65.80
2018-06-25T09:11:20.261Z,65.00
2018-06-25T09:13:48.376Z,64.20
2018-06-25T09:16:16.502Z,65.00
2018-06-25T09:18:44.695Z,65.40
2018-06-25T09:21:12.814Z,65.70
2018-06-25T09:23:40.915Z,65.10
2018-06-25T09:26:09.007Z,64.20
2018-06-25T09:28:37.177Z,65.10
2018-06-25T09:31:05.264Z,63.70
2018-06-25T09:33:33.390Z,63.20
2018-06-25T09:36:01.499Z,63.40
2018-06-25T09:38:29.571Z,62.10
2018-06-25T09:40:57.704Z,60.40
2018-06-25T09:43:25.820Z,61.30
2018-06-25T09:45:53.936Z,61.10
2018-06-25T09:48:22.090Z,59.30
2018-06-25T09:50:50.326Z,58.50
2018-06-25T09:53:18.431Z,59.50
2018-06-25T09:55:46.648Z,58.90
2018-06-25T09:58:14.773Z,57.50
2018-06-25T10:00:48.246Z,57.40
2018-06-25T10:03:16.694Z,57.90
2018-06-25T10:05:44.923Z,56.80
2018-06-25T10:08:13.171Z,56.30
2018-06-25T10:10:41.520Z,56.60
2018-06-25T10:13:09.616Z,55.30
2018-06-25T10:15:37.839Z,55.90
2018-06-25T10:18:06.143Z,54.20
2018-06-25T10:20:34.360Z,54.40
2018-06-25T10:23:02.531Z,54.90
2018-06-25T10:25:30.647Z,54.20
2018-06-25T10:27:58.813Z,52.80
2018-06-25T10:30:26.945Z,51.60
2018-06-25T10:32:55.073Z,53.30
2018-06-25T10:35:23.229Z,53.30
2018-06-25T10:37:51.468Z,53.80
2018-06-25T10:40:19.582Z,55.00
2018-06-25T10:42:47.721Z,55.00
2018-06-25T10:45:15.848Z,52.60
2018-06-25T10:47:44.294Z,52.30
2018-06-25T10:50:12.427Z,52.50
2018-06-25T10:52:40.591Z,53.30
2018-06-25T10:55:08.807Z,51.60
2018-06-25T10:57:36.954Z,53.10
2018-06-25T11:00:06.080Z,53.70
2018-06-25T11:02:34.049Z,54.10
2018-06-25T11:05:02.232Z,54.00
2018-06-25T11:07:30.463Z,54.70
2018-06-25T11:09:58.536Z,52.20
2018-06-25T11:12:26.690Z,51.60
2018-06-25T11:14:54.891Z,51.00
2018-06-25T11:17:23.061Z,49.80
2018-06-25T11:19:51.197Z,49.80
2018-06-25T11:22:19.385Z,49.90
2018-06-25T11:24:47.563Z,48.70
2018-06-25T11:27:15.764Z,48.60
2018-06-25T11:29:43.843Z,48.20
2018-06-25T11:34:46.644Z,48.90
2018-06-25T11:37:14.782Z,49.00
2018-06-25T11:39:42.912Z,48.70
2018-06-25T11:42:11.091Z,48.60
2018-06-25T11:44:39.236Z,47.80
2018-06-25T11:47:07.402Z,47.40
2018-06-25T11:49:35.532Z,48.30
2018-06-25T11:52:03.655Z,46.10
2018-06-25T11:54:31.807Z,46.30
2018-06-25T11:56:59.971Z,46.20
2018-06-25T11:59:28.158Z,46.50
2018-06-25T12:01:56.397Z,46.30
2018-06-25T12:04:24.443Z,47.10
2018-06-25T12:06:52.589Z,47.70
2018-06-25T12:09:20.767Z,46.80
2018-06-25T12:11:48.899Z,46.40
2018-06-25T12:14:17.065Z,46.90
2018-06-25T12:16:45.163Z,45.40
2018-06-25T12:19:13.328Z,45.30
2018-06-25T12:21:41.516Z,46.90
2018-06-25T12:24:09.631Z,43.40
2018-06-25T12:26:37.786Z,43.90
2018-06-25T12:29:05.940Z,43.90
2018-06-25T12:31:34.118Z,43.90
2018-06-25T12:34:02.276Z,44.90
2018-06-25T12:36:30.435Z,44.30
2018-06-25T12:38:58.655Z,44.00
2018-06-25T12:41:26.828Z,44.10
2018-06-25T12:43:54.999Z,43.70
2018-06-25T12:46:23.191Z,42.20
2018-06-25T12:48:51.358Z,42.30
2018-06-25T12:51:19.499Z,41.60
2018-06-25T12:53:47.699Z,42.50
2018-06-25T12:56:15.884Z,42.50
2018-06-25T12:58:44.019Z,41.40
2018-06-25T13:01:12.207Z,41.70
2018-06-25T13:03:40.377Z,42.50
2018-06-25T13:06:08.499Z,41.90
2018-06-25T13:08:36.583Z,42.50
2018-06-25T13:11:04.685Z,42.80
2018-06-25T13:13:32.914Z,42.30
2018-06-25T13:16:01.086Z,42.10
2018-06-25T13:18:29.211Z,42.50
2018-06-25T13:20:57.347Z,42.50
2018-06-25T13:23:25.518Z,43.30
2018-06-25T13:25:53.730Z,42.80
2018-06-25T13:28:21.879Z,42.60
2018-06-25T13:30:50.125Z,43.00
2018-06-25T13:33:18.260Z,42.40
2018-06-25T13:35:46.391Z,41.80
2018-06-25T13:38:14.542Z,42.60
2018-06-25T13:40:42.795Z,42.90
2018-06-25T13:43:10.932Z,42.20
2018-06-25T13:45:39.072Z,42.30
2018-06-25T13:48:07.276Z,40.80
2018-06-25T13:50:35.415Z,42.00
2018-06-25T13:53:03.628Z,42.50
2018-06-25T13:55:31.791Z,42.50
2018-06-25T13:57:59.996Z,41.80
2018-06-25T14:00:28.164Z,41.40
2018-06-25T14:02:56.316Z,41.10
2018-06-25T14:05:24.534Z,41.60
2018-06-25T14:07:53.067Z,41.90
2018-06-25T14:10:21.231Z,42.10
2018-06-25T14:12:49.371Z,41.80
2018-06-25T14:15:17.572Z,41.50
2018-06-25T14:17:45.758Z,41.20
2018-06-25T14:20:14.192Z,41.90
2018-06-25T14:22:42.416Z,41.50
2018-06-25T14:25:10.569Z,41.40
2018-06-25T14:27:44.251Z,42.30
2018-06-25T14:30:17.715Z,42.50
2018-06-25T14:32:50.986Z,42.60
2018-06-25T14:35:19.127Z,42.00
2018-06-25T14:37:47.717Z,41.70
2018-06-25T14:40:15.976Z,41.40
2018-06-25T14:42:44.113Z,41.70
2018-06-25T14:45:12.338Z,42.10
2018-06-25T14:47:40.435Z,42.80
2018-06-25T14:50:08.604Z,43.70
2018-06-25T14:52:36.761Z,43.10
2018-06-25T14:55:04.935Z,43.10
2018-06-25T14:57:33.040Z,43.30
2018-06-25T15:00:01.312Z,43.20
2018-06-25T15:04:57.776Z,42.80
2018-06-25T15:07:25.923Z,43.10
2018-06-25T15:09:54.153Z,42.80
2018-06-25T15:12:22.246Z,43.10
2018-06-25T15:14:50.407Z,43.20
2018-06-25T15:17:18.510Z,43.20
2018-06-25T15:19:46.617Z,43.50
2018-06-25T15:22:14.707Z,43.90
2018-06-25T15:24:42.804Z,42.90
2018-06-25T15:27:10.907Z,43.20
2018-06-25T15:29:39.005Z,42.90
2018-06-25T15:32:07.144Z,43.00
2018-06-25T15:34:35.254Z,42.60
2018-06-25T15:37:03.371Z,42.70
2018-06-25T15:39:31.540Z,43.10
2018-06-25T15:41:59.661Z,42.80
2018-06-25T15:44:28.592Z,42.50
2018-06-25T15:46:56.751Z,42.80
2018-06-25T15:49:24.864Z,42.80
2018-06-25T15:51:53.015Z,42.50
2018-06-25T15:56:49.098Z,42.70
2018-06-25T15:59:17.235Z,42.30
2018-06-25T16:01:45.417Z,42.90
2018-06-25T16:04:13.646Z,42.60
2018-06-25T16:06:41.863Z,43.40
2018-06-25T16:09:10.178Z,42.50
2018-06-25T16:11:38.297Z,43.10
2018-06-25T16:14:06.452Z,42.90
2018-06-25T16:16:34.620Z,42.80
2018-06-25T16:19:02.773Z,43.50
2018-06-25T16:21:31.003Z,43.60
2018-06-25T16:23:59.180Z,43.90
2018-06-25T16:26:27.323Z,44.10
2018-06-25T16:28:55.490Z,43.30
2018-06-25T16:31:23.621Z,43.70
2018-06-25T16:33:52.036Z,43.70
2018-06-25T16:36:20.205Z,43.90
2018-06-25T16:38:48.413Z,44.40
2018-06-25T16:41:16.585Z,43.50
2018-06-25T16:43:44.827Z,44.20
2018-06-25T16:46:12.955Z,43.90
2018-06-25T16:48:41.292Z,44.10
2018-06-25T16:51:09.493Z,44.20
2018-06-25T16:53:37.692Z,44.10
2018-06-25T16:56:05.856Z,44.00
2018-06-25T16:58:34.055Z,44.50
2018-06-25T17:01:02.159Z,44.50
2018-06-25T17:03:30.304Z,44.40
2018-06-25T17:05:58.444Z,44.00
2018-06-25T17:08:26.611Z,44.50
2018-06-25T17:10:54.761Z,44.70
2018-06-25T17:15:50.943Z,44.30
2018-06-25T17:18:19.079Z,45.20
2018-06-25T17:20:47.202Z,45.90
2018-06-25T17:25:43.376Z,45.80
2018-06-25T17:28:11.564Z,45.90
2018-06-25T17:30:39.685Z,45.80
2018-06-25T17:33:07.800Z,45.90
2018-06-25T17:35:35.969Z,46.20
2018-06-25T17:38:04.131Z,46.30
2018-06-25T17:40:32.324Z,46.50
2018-06-25T17:43:00.484Z,46.90
2018-06-25T17:45:28.625Z,47.10
2018-06-25T17:47:56.770Z,47.60
2018-06-25T17:50:24.992Z,47.40
2018-06-25T17:52:53.096Z,47.40
2018-06-25T17:55:21.252Z,47.60
2018-06-25T17:57:49.336Z,47.30
2018-06-25T18:00:17.463Z,47.70
2018-06-25T18:02:45.616Z,47.80
2018-06-25T18:05:13.698Z,48.30
2018-06-25T18:07:41.888Z,48.50
2018-06-25T18:10:10.012Z,48.60
2018-06-25T18:12:38.199Z,48.60
2018-06-25T18:15:06.300Z,49.20
2018-06-25T18:17:34.428Z,48.60
2018-06-25T18:20:02.534Z,48.70
2018-06-25T18:22:30.645Z,48.90
2018-06-25T18:24:58.737Z,49.10
2018-06-25T18:27:26.872Z,49.50
2018-06-25T18:29:54.954Z,49.60
2018-06-25T18:32:23.176Z,49.40
2018-06-25T18:37:19.165Z,49.60
2018-06-25T18:39:47.280Z,49.80
2018-06-25T18:42:15.411Z,49.60
2018-06-25T18:44:43.699Z,50.00
2018-06-25T18:47:11.728Z,50.00
2018-06-25T18:49:39.864Z,50.00
2018-06-25T18:52:08.003Z,50.00
2018-06-25T18:54:36.127Z,50.50
2018-06-25T18:57:04.267Z,50.50
2018-06-25T18:59:32.475Z,51.00
2018-06-25T19:02:00.601Z,50.80
2018-06-25T19:04:28.881Z,51.30
2018-06-25T19:06:57.003Z,51.50
2018-06-25T19:09:25.167Z,52.00
2018-06-25T19:11:53.291Z,51.70
2018-06-25T19:14:21.442Z,51.70
2018-06-25T19:16:49.605Z,52.00
2018-06-25T19:19:17.723Z,52.40
2018-06-25T19:21:45.873Z,52.50
2018-06-25T19:24:14.011Z,52.90
2018-06-25T19:26:42.156Z,52.90
2018-06-25T19:29:10.663Z,53.60
2018-06-25T19:31:38.623Z,53.60
2018-06-25T19:34:06.796Z,53.90
2018-06-25T19:36:34.977Z,54.40
2018-06-25T19:39:03.564Z,54.50
2018-06-25T19:41:31.758Z,54.50
2018-06-25T19:46:27.779Z,55.00
2018-06-25T19:48:56.040Z,55.20
2018-06-25T19:51:24.220Z,55.20
2018-06-25T19:53:52.403Z,55.50
2018-06-25T19:56:20.500Z,56.00
2018-06-25T19:58:48.763Z,56.00
2018-06-25T20:01:16.887Z,55.90
2018-06-25T20:03:45.022Z,56.20
2018-06-25T20:06:13.235Z,56.40
2018-06-25T20:08:41.307Z,56.40
2018-06-25T20:11:09.450Z,57.00
2018-06-25T20:13:37.609Z,56.80
2018-06-25T20:16:05.840Z,56.80
2018-06-25T20:18:33.967Z,56.80
2018-06-25T20:21:02.098Z,56.90
2018-06-25T20:23:30.233Z,57.20
2018-06-25T20:25:58.474Z,57.30
2018-06-25T20:28:26.496Z,57.50
2018-06-25T20:30:54.648Z,57.60
2018-06-25T20:33:22.798Z,57.70
2018-06-25T20:35:50.931Z,58.10
2018-06-25T20:38:19.071Z,58.10
2018-06-25T20:40:47.200Z,58.20
2018-06-25T20:43:15.343Z,58.80
2018-06-25T20:45:43.471Z,58.50
2018-06-25T20:48:11.681Z,58.60
2018-06-25T20:50:39.821Z,58.90
2018-06-25T20:53:08.568Z,58.90
2018-06-25T20:55:36.680Z,58.80
2018-06-25T20:58:04.760Z,58.90
2018-06-25T21:00:32.853Z,59.60
2018-06-25T21:03:00.983Z,59.00
2018-06-25T21:05:29.088Z,59.00
2018-06-25T21:07:57.179Z,59.20
2018-06-25T21:10:25.256Z,59.30
2018-06-25T21:12:53.367Z,59.60
2018-06-25T21:15:21.492Z,59.70
2018-06-25T21:17:49.580Z,60.10
2018-06-25T21:20:17.700Z,60.10
2018-06-25T21:22:45.890Z,59.70
2018-06-25T21:25:13.998Z,60.00
2018-06-25T21:27:42.164Z,59.70
2018-06-25T21:30:10.247Z,59.80
2018-06-25T21:32:38.359Z,60.00
2018-06-25T21:35:06.472Z,60.30
2018-06-25T21:37:34.609Z,59.90
2018-06-25T21:40:02.736Z,60.40
2018-06-25T21:42:30.818Z,60.40
2018-06-25T21:44:58.910Z,60.20
2018-06-25T21:47:27.061Z,60.60
2018-06-25T21:49:55.196Z,60.50
2018-06-25T21:52:23.355Z,60.50
2018-06-25T21:54:51.492Z,60.40
2018-06-25T21:57:19.628Z,60.70
2018-06-25T21:59:47.776Z,60.70
2018-06-25T22:02:15.910Z,60.70
2018-06-25T22:04:44.074Z,60.90
2018-06-25T22:07:12.220Z,60.90
2018-06-25T22:09:40.397Z,61.00
2018-06-25T22:12:08.519Z,61.10
2018-06-25T22:14:36.639Z,61.70
2018-06-25T22:17:04.848Z,61.40
2018-06-25T22:19:32.955Z,61.50
2018-06-25T22:22:01.102Z,61.80
2018-06-25T22:24:29.245Z,62.00
2018-06-25T22:26:57.381Z,61.80
2018-06-25T22:29:25.560Z,61.80
2018-06-25T22:31:53.761Z,61.90
2018-06-25T22:39:17.663Z,62.00
2018-06-25T22:41:45.892Z,62.40
2018-06-25T22:44:14.736Z,62.00
2018-06-25T22:46:43.740Z,62.10
2018-06-25T22:49:12.123Z,62.30
2018-06-25T22:51:40.224Z,62.20
2018-06-25T22:54:08.608Z,62.60
2018-06-25T22:56:36.753Z,62.70
2018-06-25T22:59:05.179Z,62.60
2018-06-25T23:01:33.271Z,62.30
2018-06-25T23:04:01.356Z,62.40
2018-06-25T23:06:29.418Z,62.60
2018-06-25T23:08:57.504Z,62.70
2018-06-25T23:11:25.667Z,62.70
2018-06-25T23:13:53.853Z,63.30
2018-06-25T23:16:21.937Z,63.10
2018-06-25T23:18:50.032Z,63.00
2018-06-25T23:21:18.114Z,62.80
2018-06-25T23:23:46.297Z,62.90
2018-06-25T23:26:14.412Z,63.00
2018-06-25T23:28:42.501Z,63.10
2018-06-25T23:31:10.601Z,63.00
2018-06-25T23:33:38.699Z,62.90
2018-06-25T23:36:06.771Z,62.90
2018-06-25T23:38:34.844Z,63.00
2018-06-25T23:41:02.944Z,63.20
2018-06-25T23:43:31.039Z,63.20
2018-06-25T23:45:59.143Z,63.10
2018-06-25T23:48:27.235Z,63.30
2018-06-25T23:50:55.328Z,63.70
2018-06-25T23:53:23.467Z,63.50
2018-06-25T23:55:51.584Z,63.40
2018-06-25T23:58:19.723Z,63.40
